sensor_id;sensor_type;location;lat;lon;timestamp;temperature;humidity
70726;DHT22;58304;53.104;6.022;2023-03-01T00:01:25;-0.90;99.90
70726;DHT22;58304;53.104;6.022;2023-03-01T00:03:52;-0.90;99.90
70726;DHT22;58304;53.104;6.022;2023-03-01T00:06:19;-1.00;99.90
70726;DHT22;58304;53.104;6.022;2023-03-01T00:08:45;-1.00;99.90
70726;DHT22;58304;53.104;6.022;2023-03-01T00:11:14;-1.10;99.90
70726;DHT22;58304;53.104;6.022;2023-03-01T00:13:40;-1.10;99.90
70726;DHT22;58304;53.104;6.022;2023-03-01T00:16:09;-1.10;99.90
70726;DHT22;58304;53.104;6.022;2023-03-01T00:18:35;-1.10;99.90
70726;DHT22;58304;53.104;6.022;2023-03-01T00:21:01;-1.00;99.90
70726;DHT22;58304;53.104;6.022;2023-03-01T00:23:27;-1.00;99.90
70726;DHT22;58304;53.104;6.022;2023-03-01T00:25:52;-1.00;99.90
70726;DHT22;58304;53.104;6.022;2023-03-01T00:28:19;-1.10;99.90
70726;DHT22;58304;53.104;6.022;2023-03-01T00:30:45;-1.10;99.90
70726;DHT22;58304;53.104;6.022;2023-03-01T00:33:11;-1.20;99.90
70726;DHT22;58304;53.104;6.022;2023-03-01T00:35:37;-1.20;99.90
70726;DHT22;58304;53.104;6.022;2023-03-01T00:38:03;-1.30;99.90
70726;DHT22;58304;53.104;6.022;2023-03-01T00:40:31;-1.30;99.90
70726;DHT22;58304;53.104;6.022;2023-03-01T00:42:57;-1.50;99.90
70726;DHT22;58304;53.104;6.022;2023-03-01T00:45:22;-1.50;99.90
70726;DHT22;58304;53.104;6.022;2023-03-01T00:47:49;-1.60;99.90
70726;DHT22;58304;53.104;6.022;2023-03-01T00:50:15;-1.70;99.90
70726;DHT22;58304;53.104;6.022;2023-03-01T00:52:40;-1.70;99.90
70726;DHT22;58304;53.104;6.022;2023-03-01T00:55:07;-1.70;99.90
70726;DHT22;58304;53.104;6.022;2023-03-01T00:57:32;-1.80;99.90
70726;DHT22;58304;53.104;6.022;2023-03-01T00:59:58;-1.80;99.90
70726;DHT22;58304;53.104;6.022;2023-03-01T01:02:24;-1.70;99.90
70726;DHT22;58304;53.104;6.022;2023-03-01T01:04:50;-1.80;99.90
70726;DHT22;58304;53.104;6.022;2023-03-01T01:07:16;-1.90;99.90
70726;DHT22;58304;53.104;6.022;2023-03-01T01:09:41;-1.90;99.90
70726;DHT22;58304;53.104;6.022;2023-03-01T01:12:07;-1.90;99.90
70726;DHT22;58304;53.104;6.022;2023-03-01T01:14:33;-1.90;99.90
70726;DHT22;58304;53.104;6.022;2023-03-01T01:16:59;-1.80;99.90
70726;DHT22;58304;53.104;6.022;2023-03-01T01:19:25;-1.80;99.90
70726;DHT22;58304;53.104;6.022;2023-03-01T01:21:51;-1.70;99.90
70726;DHT22;58304;53.104;6.022;2023-03-01T01:24:17;-1.70;99.90
70726;DHT22;58304;53.104;6.022;2023-03-01T01:26:43;-1.70;99.90
70726;DHT22;58304;53.104;6.022;2023-03-01T01:29:09;-1.70;99.90
70726;DHT22;58304;53.104;6.022;2023-03-01T01:31:36;-1.80;99.90
70726;DHT22;58304;53.104;6.022;2023-03-01T01:34:04;-1.70;99.90
70726;DHT22;58304;53.104;6.022;2023-03-01T01:36:31;-1.70;99.90
70726;DHT22;58304;53.104;6.022;2023-03-01T01:38:57;-1.70;99.90
70726;DHT22;58304;53.104;6.022;2023-03-01T01:41:24;-1.70;99.90
70726;DHT22;58304;53.104;6.022;2023-03-01T01:49:25;-1.70;99.90
70726;DHT22;58304;53.104;6.022;2023-03-01T01:52:00;-1.80;99.90
70726;DHT22;58304;53.104;6.022;2023-03-01T01:54:44;-1.80;99.90
70726;DHT22;58304;53.104;6.022;2023-03-01T01:57:16;-1.80;99.90
70726;DHT22;58304;53.104;6.022;2023-03-01T01:59:47;-1.80;99.90
70726;DHT22;58304;53.104;6.022;2023-03-01T02:02:15;-1.90;99.90
70726;DHT22;58304;53.104;6.022;2023-03-01T02:04:41;-1.90;99.90
70726;DHT22;58304;53.104;6.022;2023-03-01T02:07:15;-1.90;99.90
70726;DHT22;58304;53.104;6.022;2023-03-01T02:09:49;-1.90;99.90
70726;DHT22;58304;53.104;6.022;2023-03-01T02:12:21;-1.90;99.90
70726;DHT22;58304;53.104;6.022;2023-03-01T02:14:48;-1.90;99.90
70726;DHT22;58304;53.104;6.022;2023-03-01T02:17:16;-2.00;99.90
70726;DHT22;58304;53.104;6.022;2023-03-01T02:22:25;-2.00;99.90
70726;DHT22;58304;53.104;6.022;2023-03-01T02:25:02;-2.10;99.90
70726;DHT22;58304;53.104;6.022;2023-03-01T02:30:47;-2.10;99.90
70726;DHT22;58304;53.104;6.022;2023-03-01T02:33:33;-2.10;99.90
70726;DHT22;58304;53.104;6.022;2023-03-01T02:36:09;-2.00;99.90
70726;DHT22;58304;53.104;6.022;2023-03-01T02:38:36;-2.00;99.90
70726;DHT22;58304;53.104;6.022;2023-03-01T02:41:03;-2.10;99.90
70726;DHT22;58304;53.104;6.022;2023-03-01T02:43:33;-2.00;99.90
70726;DHT22;58304;53.104;6.022;2023-03-01T02:46:06;-2.00;99.90
70726;DHT22;58304;53.104;6.022;2023-03-01T02:48:44;-2.10;99.90
70726;DHT22;58304;53.104;6.022;2023-03-01T02:51:52;-2.10;99.90
70726;DHT22;58304;53.104;6.022;2023-03-01T02:54:27;-2.10;99.90
70726;DHT22;58304;53.104;6.022;2023-03-01T02:56:54;-2.00;99.90
70726;DHT22;58304;53.104;6.022;2023-03-01T02:59:24;-2.00;99.90
70726;DHT22;58304;53.104;6.022;2023-03-01T03:01:52;-2.20;99.90
70726;DHT22;58304;53.104;6.022;2023-03-01T03:04:18;-2.10;99.90
70726;DHT22;58304;53.104;6.022;2023-03-01T03:06:47;-2.10;99.90
70726;DHT22;58304;53.104;6.022;2023-03-01T03:09:14;-2.20;99.90
70726;DHT22;58304;53.104;6.022;2023-03-01T03:11:40;-2.20;99.90
70726;DHT22;58304;53.104;6.022;2023-03-01T03:14:07;-2.20;99.90
70726;DHT22;58304;53.104;6.022;2023-03-01T03:16:39;-2.20;99.90
70726;DHT22;58304;53.104;6.022;2023-03-01T03:19:05;-2.20;99.90
70726;DHT22;58304;53.104;6.022;2023-03-01T03:21:32;-2.20;99.90
70726;DHT22;58304;53.104;6.022;2023-03-01T03:23:58;-2.30;99.90
70726;DHT22;58304;53.104;6.022;2023-03-01T03:26:24;-2.20;99.90
70726;DHT22;58304;53.104;6.022;2023-03-01T03:28:50;-2.30;99.90
70726;DHT22;58304;53.104;6.022;2023-03-01T03:31:15;-2.30;99.90
70726;DHT22;58304;53.104;6.022;2023-03-01T03:33:41;-2.30;99.90
70726;DHT22;58304;53.104;6.022;2023-03-01T03:36:07;-2.30;99.90
70726;DHT22;58304;53.104;6.022;2023-03-01T03:38:38;-2.30;99.90
70726;DHT22;58304;53.104;6.022;2023-03-01T03:41:06;-2.40;99.90
70726;DHT22;58304;53.104;6.022;2023-03-01T03:43:35;-2.50;99.90
70726;DHT22;58304;53.104;6.022;2023-03-01T03:46:02;-2.60;99.90
70726;DHT22;58304;53.104;6.022;2023-03-01T03:48:32;-2.70;99.90
70726;DHT22;58304;53.104;6.022;2023-03-01T03:50:58;-2.60;99.90
70726;DHT22;58304;53.104;6.022;2023-03-01T03:53:26;-2.60;99.90
70726;DHT22;58304;53.104;6.022;2023-03-01T03:55:52;-2.60;99.90
70726;DHT22;58304;53.104;6.022;2023-03-01T03:58:20;-2.60;99.90
70726;DHT22;58304;53.104;6.022;2023-03-01T04:00:48;-2.60;99.90
70726;DHT22;58304;53.104;6.022;2023-03-01T04:03:15;-2.60;99.90
70726;DHT22;58304;53.104;6.022;2023-03-01T04:05:42;-2.70;99.90
70726;DHT22;58304;53.104;6.022;2023-03-01T04:08:08;-2.70;99.90
70726;DHT22;58304;53.104;6.022;2023-03-01T04:10:40;-2.70;99.90
70726;DHT22;58304;53.104;6.022;2023-03-01T04:13:08;-2.60;99.90
70726;DHT22;58304;53.104;6.022;2023-03-01T04:15:35;-2.60;99.90
70726;DHT22;58304;53.104;6.022;2023-03-01T04:18:00;-2.60;99.90
70726;DHT22;58304;53.104;6.022;2023-03-01T04:20:29;-2.60;99.90
70726;DHT22;58304;53.104;6.022;2023-03-01T04:23:07;-2.80;99.90
70726;DHT22;58304;53.104;6.022;2023-03-01T04:28:11;-2.80;99.90
70726;DHT22;58304;53.104;6.022;2023-03-01T04:30:38;-2.80;99.90
70726;DHT22;58304;53.104;6.022;2023-03-01T04:33:08;-2.90;99.90
70726;DHT22;58304;53.104;6.022;2023-03-01T04:35:35;-2.90;99.90
70726;DHT22;58304;53.104;6.022;2023-03-01T04:38:02;-2.80;99.90
70726;DHT22;58304;53.104;6.022;2023-03-01T04:40:27;-2.90;99.90
70726;DHT22;58304;53.104;6.022;2023-03-01T04:42:53;-2.80;99.90
70726;DHT22;58304;53.104;6.022;2023-03-01T04:45:19;-2.90;99.90
70726;DHT22;58304;53.104;6.022;2023-03-01T04:47:46;-2.90;99.90
70726;DHT22;58304;53.104;6.022;2023-03-01T04:50:16;-3.00;99.90
70726;DHT22;58304;53.104;6.022;2023-03-01T04:52:43;-3.10;99.90
70726;DHT22;58304;53.104;6.022;2023-03-01T04:55:10;-3.00;99.90
70726;DHT22;58304;53.104;6.022;2023-03-01T04:57:36;-3.10;99.90
70726;DHT22;58304;53.104;6.022;2023-03-01T05:00:02;-3.10;99.90
70726;DHT22;58304;53.104;6.022;2023-03-01T05:02:54;-3.00;99.90
70726;DHT22;58304;53.104;6.022;2023-03-01T05:05:28;-3.00;99.90
70726;DHT22;58304;53.104;6.022;2023-03-01T05:08:00;-3.10;99.90
70726;DHT22;58304;53.104;6.022;2023-03-01T05:10:27;-3.10;99.90
70726;DHT22;58304;53.104;6.022;2023-03-01T05:12:57;-3.10;99.90
70726;DHT22;58304;53.104;6.022;2023-03-01T05:15:27;-3.10;99.90
70726;DHT22;58304;53.104;6.022;2023-03-01T05:17:55;-3.10;99.90
70726;DHT22;58304;53.104;6.022;2023-03-01T05:20:21;-3.10;99.90
70726;DHT22;58304;53.104;6.022;2023-03-01T05:22:51;-3.10;99.90
70726;DHT22;58304;53.104;6.022;2023-03-01T05:25:17;-3.10;99.90
70726;DHT22;58304;53.104;6.022;2023-03-01T05:27:43;-3.20;99.90
70726;DHT22;58304;53.104;6.022;2023-03-01T05:30:09;-3.20;99.90
70726;DHT22;58304;53.104;6.022;2023-03-01T05:32:49;-3.20;99.90
70726;DHT22;58304;53.104;6.022;2023-03-01T05:35:16;-3.20;99.90
70726;DHT22;58304;53.104;6.022;2023-03-01T05:37:44;-3.20;99.90
70726;DHT22;58304;53.104;6.022;2023-03-01T05:40:12;-3.20;99.90
70726;DHT22;58304;53.104;6.022;2023-03-01T05:42:50;-3.20;99.90
70726;DHT22;58304;53.104;6.022;2023-03-01T05:45:17;-3.20;99.90
70726;DHT22;58304;53.104;6.022;2023-03-01T05:47:45;-3.20;99.90
70726;DHT22;58304;53.104;6.022;2023-03-01T05:52:49;-3.20;99.90
70726;DHT22;58304;53.104;6.022;2023-03-01T05:55:17;-3.20;99.90
70726;DHT22;58304;53.104;6.022;2023-03-01T05:57:42;-3.20;99.90
70726;DHT22;58304;53.104;6.022;2023-03-01T06:00:09;-3.30;99.90
70726;DHT22;58304;53.104;6.022;2023-03-01T06:02:35;-3.30;99.90
70726;DHT22;58304;53.104;6.022;2023-03-01T06:05:01;-3.30;99.90
70726;DHT22;58304;53.104;6.022;2023-03-01T06:07:26;-3.40;99.90
70726;DHT22;58304;53.104;6.022;2023-03-01T06:09:52;-3.40;99.90
70726;DHT22;58304;53.104;6.022;2023-03-01T06:12:17;-3.40;99.90
70726;DHT22;58304;53.104;6.022;2023-03-01T06:14:44;-3.40;99.90
70726;DHT22;58304;53.104;6.022;2023-03-01T06:17:10;-3.50;99.90
70726;DHT22;58304;53.104;6.022;2023-03-01T06:19:35;-3.50;99.90
70726;DHT22;58304;53.104;6.022;2023-03-01T06:22:01;-3.50;99.90
70726;DHT22;58304;53.104;6.022;2023-03-01T06:24:26;-3.50;99.90
70726;DHT22;58304;53.104;6.022;2023-03-01T06:26:54;-3.50;99.90
70726;DHT22;58304;53.104;6.022;2023-03-01T06:29:19;-3.50;99.90
70726;DHT22;58304;53.104;6.022;2023-03-01T06:31:45;-3.50;99.90
70726;DHT22;58304;53.104;6.022;2023-03-01T06:34:11;-3.50;99.90
70726;DHT22;58304;53.104;6.022;2023-03-01T06:36:39;-3.50;99.90
70726;DHT22;58304;53.104;6.022;2023-03-01T06:39:04;-3.40;99.90
70726;DHT22;58304;53.104;6.022;2023-03-01T06:41:31;-3.50;99.90
70726;DHT22;58304;53.104;6.022;2023-03-01T06:43:56;-3.60;99.90
70726;DHT22;58304;53.104;6.022;2023-03-01T06:46:22;-3.60;99.90
70726;DHT22;58304;53.104;6.022;2023-03-01T06:48:47;-3.60;99.90
70726;DHT22;58304;53.104;6.022;2023-03-01T06:51:13;-3.50;99.90
70726;DHT22;58304;53.104;6.022;2023-03-01T06:53:39;-3.40;99.90
70726;DHT22;58304;53.104;6.022;2023-03-01T06:56:04;-3.40;99.90
70726;DHT22;58304;53.104;6.022;2023-03-01T06:58:30;-3.40;99.90
70726;DHT22;58304;53.104;6.022;2023-03-01T07:00:55;-3.30;99.90
70726;DHT22;58304;53.104;6.022;2023-03-01T07:03:21;-3.20;99.90
70726;DHT22;58304;53.104;6.022;2023-03-01T07:05:51;-3.30;99.90
70726;DHT22;58304;53.104;6.022;2023-03-01T07:08:19;-3.20;99.90
70726;DHT22;58304;53.104;6.022;2023-03-01T07:10:45;-3.10;99.90
70726;DHT22;58304;53.104;6.022;2023-03-01T07:13:11;-2.80;99.90
70726;DHT22;58304;53.104;6.022;2023-03-01T07:15:36;-2.60;99.90
70726;DHT22;58304;53.104;6.022;2023-03-01T07:18:02;-2.10;99.90
70726;DHT22;58304;53.104;6.022;2023-03-01T07:20:28;-1.40;99.90
70726;DHT22;58304;53.104;6.022;2023-03-01T07:22:55;-0.50;99.90
70726;DHT22;58304;53.104;6.022;2023-03-01T07:25:24;0.20;99.90
70726;DHT22;58304;53.104;6.022;2023-03-01T07:27:53;1.10;99.90
70726;DHT22;58304;53.104;6.022;2023-03-01T07:30:20;1.50;99.90
70726;DHT22;58304;53.104;6.022;2023-03-01T07:32:46;2.20;99.90
70726;DHT22;58304;53.104;6.022;2023-03-01T07:35:12;3.00;99.90
70726;DHT22;58304;53.104;6.022;2023-03-01T07:37:40;3.70;99.90
70726;DHT22;58304;53.104;6.022;2023-03-01T07:40:06;4.80;99.90
70726;DHT22;58304;53.104;6.022;2023-03-01T07:42:32;5.30;99.90
70726;DHT22;58304;53.104;6.022;2023-03-01T07:44:58;5.20;99.90
70726;DHT22;58304;53.104;6.022;2023-03-01T07:47:23;5.40;99.90
70726;DHT22;58304;53.104;6.022;2023-03-01T07:49:49;5.60;99.90
70726;DHT22;58304;53.104;6.022;2023-03-01T07:52:15;5.80;99.90
70726;DHT22;58304;53.104;6.022;2023-03-01T07:54:42;6.40;99.90
70726;DHT22;58304;53.104;6.022;2023-03-01T07:57:08;7.60;99.90
70726;DHT22;58304;53.104;6.022;2023-03-01T07:59:34;8.20;99.90
70726;DHT22;58304;53.104;6.022;2023-03-01T08:01:59;9.40;99.90
70726;DHT22;58304;53.104;6.022;2023-03-01T08:04:25;9.90;99.90
70726;DHT22;58304;53.104;6.022;2023-03-01T08:06:52;10.40;99.90
70726;DHT22;58304;53.104;6.022;2023-03-01T08:09:18;10.00;99.90
70726;DHT22;58304;53.104;6.022;2023-03-01T08:11:43;9.90;99.90
70726;DHT22;58304;53.104;6.022;2023-03-01T08:14:09;9.60;99.90
70726;DHT22;58304;53.104;6.022;2023-03-01T08:16:35;9.80;99.90
70726;DHT22;58304;53.104;6.022;2023-03-01T08:19:09;10.00;99.90
70726;DHT22;58304;53.104;6.022;2023-03-01T08:21:35;10.10;99.90
70726;DHT22;58304;53.104;6.022;2023-03-01T08:24:05;11.10;99.90
70726;DHT22;58304;53.104;6.022;2023-03-01T08:26:32;11.80;99.90
70726;DHT22;58304;53.104;6.022;2023-03-01T08:28:59;12.50;99.90
70726;DHT22;58304;53.104;6.022;2023-03-01T08:31:28;12.50;99.90
70726;DHT22;58304;53.104;6.022;2023-03-01T08:33:56;12.60;99.90
70726;DHT22;58304;53.104;6.022;2023-03-01T08:36:26;13.50;99.90
70726;DHT22;58304;53.104;6.022;2023-03-01T08:38:52;14.50;99.50
70726;DHT22;58304;53.104;6.022;2023-03-01T08:41:19;14.10;96.20
70726;DHT22;58304;53.104;6.022;2023-03-01T08:43:45;12.80;95.30
70726;DHT22;58304;53.104;6.022;2023-03-01T08:46:11;12.70;98.90
70726;DHT22;58304;53.104;6.022;2023-03-01T08:48:36;14.10;98.60
70726;DHT22;58304;53.104;6.022;2023-03-01T08:51:14;13.40;96.10
70726;DHT22;58304;53.104;6.022;2023-03-01T08:53:41;13.90;97.50
70726;DHT22;58304;53.104;6.022;2023-03-01T08:56:07;14.50;95.80
70726;DHT22;58304;53.104;6.022;2023-03-01T08:58:33;14.40;95.20
70726;DHT22;58304;53.104;6.022;2023-03-01T09:01:00;15.00;95.80
70726;DHT22;58304;53.104;6.022;2023-03-01T09:03:25;15.40;95.50
70726;DHT22;58304;53.104;6.022;2023-03-01T09:05:52;16.20;92.60
70726;DHT22;58304;53.104;6.022;2023-03-01T09:08:18;16.30;93.30
70726;DHT22;58304;53.104;6.022;2023-03-01T09:10:44;15.90;91.80
70726;DHT22;58304;53.104;6.022;2023-03-01T09:13:10;15.90;90.70
70726;DHT22;58304;53.104;6.022;2023-03-01T09:15:39;16.70;90.70
70726;DHT22;58304;53.104;6.022;2023-03-01T09:18:05;15.20;87.50
70726;DHT22;58304;53.104;6.022;2023-03-01T09:20:32;15.10;91.70
70726;DHT22;58304;53.104;6.022;2023-03-01T09:22:58;14.30;91.20
70726;DHT22;58304;53.104;6.022;2023-03-01T09:25:24;15.50;90.70
70726;DHT22;58304;53.104;6.022;2023-03-01T09:27:54;16.20;90.40
70726;DHT22;58304;53.104;6.022;2023-03-01T09:30:20;16.60;88.80
70726;DHT22;58304;53.104;6.022;2023-03-01T09:32:46;16.70;88.20
70726;DHT22;58304;53.104;6.022;2023-03-01T09:35:12;16.50;83.50
70726;DHT22;58304;53.104;6.022;2023-03-01T09:37:38;16.60;82.30
70726;DHT22;58304;53.104;6.022;2023-03-01T09:40:28;15.90;78.80
70726;DHT22;58304;53.104;6.022;2023-03-01T09:43:13;14.80;85.10
70726;DHT22;58304;53.104;6.022;2023-03-01T09:45:43;16.50;81.70
70726;DHT22;58304;53.104;6.022;2023-03-01T09:48:16;16.90;82.50
70726;DHT22;58304;53.104;6.022;2023-03-01T09:50:44;16.80;81.60
70726;DHT22;58304;53.104;6.022;2023-03-01T09:53:18;17.70;79.80
70726;DHT22;58304;53.104;6.022;2023-03-01T09:55:51;17.70;72.30
70726;DHT22;58304;53.104;6.022;2023-03-01T10:01:28;18.10;75.10
70726;DHT22;58304;53.104;6.022;2023-03-01T10:06:49;17.90;70.10
70726;DHT22;58304;53.104;6.022;2023-03-01T10:09:17;17.60;70.10
70726;DHT22;58304;53.104;6.022;2023-03-01T10:11:52;17.40;71.70
70726;DHT22;58304;53.104;6.022;2023-03-01T10:14:52;18.00;71.20
70726;DHT22;58304;53.104;6.022;2023-03-01T10:17:28;17.40;67.30
70726;DHT22;58304;53.104;6.022;2023-03-01T10:20:25;17.50;70.00
70726;DHT22;58304;53.104;6.022;2023-03-01T10:22:51;17.30;68.40
70726;DHT22;58304;53.104;6.022;2023-03-01T10:31:20;17.60;67.60
70726;DHT22;58304;53.104;6.022;2023-03-01T10:33:47;17.90;68.80
70726;DHT22;58304;53.104;6.022;2023-03-01T10:36:16;17.90;68.10
70726;DHT22;58304;53.104;6.022;2023-03-01T10:38:56;18.10;70.50
70726;DHT22;58304;53.104;6.022;2023-03-01T10:41:27;18.30;67.10
70726;DHT22;58304;53.104;6.022;2023-03-01T10:43:57;18.30;68.30
70726;DHT22;58304;53.104;6.022;2023-03-01T10:46:33;18.70;68.20
70726;DHT22;58304;53.104;6.022;2023-03-01T10:49:15;18.50;64.30
70726;DHT22;58304;53.104;6.022;2023-03-01T10:51:43;18.50;66.80
70726;DHT22;58304;53.104;6.022;2023-03-01T10:54:30;18.00;62.50
70726;DHT22;58304;53.104;6.022;2023-03-01T10:57:00;18.30;65.90
70726;DHT22;58304;53.104;6.022;2023-03-01T10:59:37;18.50;67.50
70726;DHT22;58304;53.104;6.022;2023-03-01T11:02:23;18.60;66.50
70726;DHT22;58304;53.104;6.022;2023-03-01T11:05:01;18.70;66.50
70726;DHT22;58304;53.104;6.022;2023-03-01T11:10:15;19.00;64.90
70726;DHT22;58304;53.104;6.022;2023-03-01T11:12:42;18.70;63.10
70726;DHT22;58304;53.104;6.022;2023-03-01T11:15:24;18.70;65.10
70726;DHT22;58304;53.104;6.022;2023-03-01T11:17:50;18.40;63.30
70726;DHT22;58304;53.104;6.022;2023-03-01T11:22:52;18.60;64.80
70726;DHT22;58304;53.104;6.022;2023-03-01T11:25:20;18.60;62.60
70726;DHT22;58304;53.104;6.022;2023-03-01T11:27:47;17.50;63.90
70726;DHT22;58304;53.104;6.022;2023-03-01T11:30:20;17.90;66.10
70726;DHT22;58304;53.104;6.022;2023-03-01T11:35:31;17.60;65.60
70726;DHT22;58304;53.104;6.022;2023-03-01T11:38:21;17.50;66.20
70726;DHT22;58304;53.104;6.022;2023-03-01T11:41:10;17.70;68.50
70726;DHT22;58304;53.104;6.022;2023-03-01T11:43:59;17.50;64.90
70726;DHT22;58304;53.104;6.022;2023-03-01T11:51:42;17.60;66.60
70726;DHT22;58304;53.104;6.022;2023-03-01T11:54:17;17.30;66.80
70726;DHT22;58304;53.104;6.022;2023-03-01T11:56:50;17.20;69.10
70726;DHT22;58304;53.104;6.022;2023-03-01T11:59:39;17.10;65.80
70726;DHT22;58304;53.104;6.022;2023-03-01T12:11:43;15.50;69.00
70726;DHT22;58304;53.104;6.022;2023-03-01T12:13:56;15.70;69.70
70726;DHT22;58304;53.104;6.022;2023-03-01T12:17:09;15.80;68.20
70726;DHT22;58304;53.104;6.022;2023-03-01T12:19:52;15.50;70.50
70726;DHT22;58304;53.104;6.022;2023-03-01T12:30:26;16.10;70.90
70726;DHT22;58304;53.104;6.022;2023-03-01T12:35:54;15.00;66.60
70726;DHT22;58304;53.104;6.022;2023-03-01T12:38:32;14.20;70.50
70726;DHT22;58304;53.104;6.022;2023-03-01T12:49:31;14.90;70.30
70726;DHT22;58304;53.104;6.022;2023-03-01T12:54:36;15.70;70.90
70726;DHT22;58304;53.104;6.022;2023-03-01T12:57:34;15.30;71.50
70726;DHT22;58304;53.104;6.022;2023-03-01T13:00:30;15.40;72.40
70726;DHT22;58304;53.104;6.022;2023-03-01T13:05:59;15.80;71.60
70726;DHT22;58304;53.104;6.022;2023-03-01T13:09:00;15.90;72.00
70726;DHT22;58304;53.104;6.022;2023-03-01T13:11:29;16.10;70.30
70726;DHT22;58304;53.104;6.022;2023-03-01T13:16:49;15.90;68.90
70726;DHT22;58304;53.104;6.022;2023-03-01T13:19:25;15.60;67.20
70726;DHT22;58304;53.104;6.022;2023-03-01T13:21:53;15.70;71.50
70726;DHT22;58304;53.104;6.022;2023-03-01T13:24:27;15.70;70.60
70726;DHT22;58304;53.104;6.022;2023-03-01T13:29:57;15.70;70.10
70726;DHT22;58304;53.104;6.022;2023-03-01T13:35:02;15.50;70.00
70726;DHT22;58304;53.104;6.022;2023-03-01T13:37:31;15.60;70.10
70726;DHT22;58304;53.104;6.022;2023-03-01T13:39:59;15.50;68.90
70726;DHT22;58304;53.104;6.022;2023-03-01T13:42:34;15.30;70.10
70726;DHT22;58304;53.104;6.022;2023-03-01T13:45:03;14.90;69.60
70726;DHT22;58304;53.104;6.022;2023-03-01T13:47:30;14.90;68.10
70726;DHT22;58304;53.104;6.022;2023-03-01T13:50:00;14.40;68.00
70726;DHT22;58304;53.104;6.022;2023-03-01T13:52:43;14.20;68.40
70726;DHT22;58304;53.104;6.022;2023-03-01T13:57:46;14.70;71.90
70726;DHT22;58304;53.104;6.022;2023-03-01T14:00:37;14.80;70.90
70726;DHT22;58304;53.104;6.022;2023-03-01T14:03:18;15.00;71.00
70726;DHT22;58304;53.104;6.022;2023-03-01T14:06:03;15.30;71.50
70726;DHT22;58304;53.104;6.022;2023-03-01T14:08:30;15.30;70.70
70726;DHT22;58304;53.104;6.022;2023-03-01T14:14:34;14.60;70.80
70726;DHT22;58304;53.104;6.022;2023-03-01T14:20:02;14.80;72.60
70726;DHT22;58304;53.104;6.022;2023-03-01T14:22:35;15.00;71.30
70726;DHT22;58304;53.104;6.022;2023-03-01T14:25:05;15.20;72.30
70726;DHT22;58304;53.104;6.022;2023-03-01T14:27:41;15.30;71.70
70726;DHT22;58304;53.104;6.022;2023-03-01T14:30:24;15.20;71.50
70726;DHT22;58304;53.104;6.022;2023-03-01T14:33:32;15.10;71.80
70726;DHT22;58304;53.104;6.022;2023-03-01T14:36:12;14.70;72.60
70726;DHT22;58304;53.104;6.022;2023-03-01T14:38:40;15.00;73.80
70726;DHT22;58304;53.104;6.022;2023-03-01T14:41:15;15.20;73.20
70726;DHT22;58304;53.104;6.022;2023-03-01T14:43:43;15.10;72.30
70726;DHT22;58304;53.104;6.022;2023-03-01T14:46:30;15.30;72.60
70726;DHT22;58304;53.104;6.022;2023-03-01T14:49:05;15.10;71.40
70726;DHT22;58304;53.104;6.022;2023-03-01T14:51:39;15.00;72.70
70726;DHT22;58304;53.104;6.022;2023-03-01T14:56:47;14.70;71.10
70726;DHT22;58304;53.104;6.022;2023-03-01T14:59:13;14.60;73.60
70726;DHT22;58304;53.104;6.022;2023-03-01T15:01:41;14.50;72.60
70726;DHT22;58304;53.104;6.022;2023-03-01T15:04:11;14.60;71.50
70726;DHT22;58304;53.104;6.022;2023-03-01T15:06:37;14.70;73.10
70726;DHT22;58304;53.104;6.022;2023-03-01T15:09:03;14.90;73.10
70726;DHT22;58304;53.104;6.022;2023-03-01T15:11:31;14.90;72.60
70726;DHT22;58304;53.104;6.022;2023-03-01T15:13:58;14.70;72.80
70726;DHT22;58304;53.104;6.022;2023-03-01T15:16:30;14.50;71.40
70726;DHT22;58304;53.104;6.022;2023-03-01T15:19:05;14.40;71.90
70726;DHT22;58304;53.104;6.022;2023-03-01T15:21:37;14.10;72.30
70726;DHT22;58304;53.104;6.022;2023-03-01T15:27:04;14.00;72.70
70726;DHT22;58304;53.104;6.022;2023-03-01T15:29:33;13.60;72.10
70726;DHT22;58304;53.104;6.022;2023-03-01T15:32:32;13.30;72.40
70726;DHT22;58304;53.104;6.022;2023-03-01T15:41:24;12.70;75.60
70726;DHT22;58304;53.104;6.022;2023-03-01T15:43:53;12.50;76.50
70726;DHT22;58304;53.104;6.022;2023-03-01T15:46:28;12.40;76.20
70726;DHT22;58304;53.104;6.022;2023-03-01T15:49:01;12.10;76.00
70726;DHT22;58304;53.104;6.022;2023-03-01T15:51:36;11.80;77.00
70726;DHT22;58304;53.104;6.022;2023-03-01T15:54:05;11.50;77.80
70726;DHT22;58304;53.104;6.022;2023-03-01T15:56:32;11.30;79.00
70726;DHT22;58304;53.104;6.022;2023-03-01T15:58:59;11.20;79.10
70726;DHT22;58304;53.104;6.022;2023-03-01T16:01:25;11.10;79.80
70726;DHT22;58304;53.104;6.022;2023-03-01T16:03:51;11.10;81.20
70726;DHT22;58304;53.104;6.022;2023-03-01T16:06:17;10.90;81.50
70726;DHT22;58304;53.104;6.022;2023-03-01T16:08:42;10.70;82.80
70726;DHT22;58304;53.104;6.022;2023-03-01T16:11:14;10.70;82.60
70726;DHT22;58304;53.104;6.022;2023-03-01T16:13:40;10.50;82.40
70726;DHT22;58304;53.104;6.022;2023-03-01T16:16:06;10.40;83.40
70726;DHT22;58304;53.104;6.022;2023-03-01T16:18:32;10.40;84.40
70726;DHT22;58304;53.104;6.022;2023-03-01T16:20:58;10.30;84.40
70726;DHT22;58304;53.104;6.022;2023-03-01T16:23:26;10.10;86.40
70726;DHT22;58304;53.104;6.022;2023-03-01T16:25:51;10.00;86.10
70726;DHT22;58304;53.104;6.022;2023-03-01T16:28:17;9.80;87.80
70726;DHT22;58304;53.104;6.022;2023-03-01T16:30:46;9.70;89.10
70726;DHT22;58304;53.104;6.022;2023-03-01T16:33:14;9.70;88.60
70726;DHT22;58304;53.104;6.022;2023-03-01T16:35:40;9.60;88.90
70726;DHT22;58304;53.104;6.022;2023-03-01T16:40:48;9.40;90.40
70726;DHT22;58304;53.104;6.022;2023-03-01T16:43:14;9.30;90.60
70726;DHT22;58304;53.104;6.022;2023-03-01T16:45:39;9.20;90.90
70726;DHT22;58304;53.104;6.022;2023-03-01T16:48:06;9.10;91.20
70726;DHT22;58304;53.104;6.022;2023-03-01T16:50:32;9.00;91.60
70726;DHT22;58304;53.104;6.022;2023-03-01T16:52:57;8.90;92.10
70726;DHT22;58304;53.104;6.022;2023-03-01T16:55:23;8.80;92.80
70726;DHT22;58304;53.104;6.022;2023-03-01T16:57:49;8.60;93.00
70726;DHT22;58304;53.104;6.022;2023-03-01T17:00:16;8.50;93.80
70726;DHT22;58304;53.104;6.022;2023-03-01T17:02:43;8.40;94.30
70726;DHT22;58304;53.104;6.022;2023-03-01T17:05:09;8.20;94.80
70726;DHT22;58304;53.104;6.022;2023-03-01T17:07:37;8.20;95.90
70726;DHT22;58304;53.104;6.022;2023-03-01T17:10:05;8.10;97.30
70726;DHT22;58304;53.104;6.022;2023-03-01T17:12:33;7.90;99.20
70726;DHT22;58304;53.104;6.022;2023-03-01T17:14:59;7.70;99.90
70726;DHT22;58304;53.104;6.022;2023-03-01T17:17:25;7.60;99.90
70726;DHT22;58304;53.104;6.022;2023-03-01T17:19:50;7.50;99.90
70726;DHT22;58304;53.104;6.022;2023-03-01T17:22:16;7.50;99.90
70726;DHT22;58304;53.104;6.022;2023-03-01T17:24:42;7.40;99.90
70726;DHT22;58304;53.104;6.022;2023-03-01T17:27:08;7.40;99.90
70726;DHT22;58304;53.104;6.022;2023-03-01T17:29:36;7.30;99.90
70726;DHT22;58304;53.104;6.022;2023-03-01T17:32:03;7.20;99.90
70726;DHT22;58304;53.104;6.022;2023-03-01T17:34:30;7.10;99.90
70726;DHT22;58304;53.104;6.022;2023-03-01T17:36:56;7.00;99.90